KPOF/POF METAR and TAF weather

Enter ICAO airport designator
Station Type Date Time Source
KPOF METAR 2024/04/15 07:53 UTC NOAA

KPOF 150753Z AUTO 20005KT 10SM CLR 18/16 A2988 RMK AO2 SLP114 T01780156


Station Type Date Time Source
KPOF Decoded METAR 2024/04/15 07:53 UTC NOAA

POPLAR BLUFF MUN AIRPORT, MO, United States (KPOF) 36-46N 090-19W 100M
Apr 15, 2024 - 03:53 AM EDT / 2024.04.15 0753 UTC
Wind: from the SSW (200 degrees) at 6 MPH (5 KT):0
Visibility: 10 mile(s):0
Sky conditions: clear
Temperature: 64.0 F (17.8 C)
Dew Point: 60.1 F (15.6 C)
Relative Humidity: 86%
Pressure (altimeter): 29.88 in. Hg (1011 hPa)
ob: KPOF 150753Z AUTO 20005KT 10SM CLR 18/16 A2988 RMK AO2 SLP114 T01780156
cycle: 8

Station Type Date Time Source
KPOF TAF UTC NOAA

Error!

Example: see airport list